Orbital elements of SL-14 R/B
| Launched | 25 July 1988 |
| Flight ended | – |
| Launch site | Plesetsk Missile and Space Complex, Russia |
| Owner | Commonwealth of Independent States (former USSR) |
| NORAD ID | 19337 |
| Date fetched |
Epoch osculation |
Inc. [°] |
Ecc. | RA asc node [hr] |
Arg Peri. [°] |
Mean anom [°] |
Mean motion [rev/day] |
Abs. mag |
| Date fetched |
Epoch osculation |
Inc. [°] |
Ecc. | RA asc node [hr] |
Arg Peri. [°] |
Mean anom [°] |
Mean motion [rev/day] |
Abs. mag |
| 2026 May 05 17:57 | 2026 May 05 09:28:36 | 82.5502 | 0.00155 | 0.2752 | 350.2249 | 183.7556 | 13.17274 | 5.743 |
| 2026 May 04 17:57 | 2026 Apr 30 15:43:00 | 82.5508 | 0.00157 | 0.4988 | 2.0685 | 183.7556 | 13.17274 | 5.743 |
| 2026 May 03 17:57 | 2026 Apr 30 15:43:00 | 82.5508 | 0.00157 | 0.4988 | 2.0685 | 183.7556 | 13.17274 | 5.743 |
| 2026 May 02 17:57 | 2026 Apr 30 15:43:00 | 82.5508 | 0.00157 | 0.4988 | 2.0685 | 183.7556 | 13.17274 | 5.743 |
| 2026 May 01 17:56 | 2026 Apr 30 15:43:00 | 82.5508 | 0.00157 | 0.4988 | 2.0685 | 183.7556 | 13.17274 | 5.743 |
| 2026 Apr 30 17:56 | 2026 Apr 30 15:43:00 | 82.5508 | 0.00157 | 0.4988 | 2.0685 | 183.7556 | 13.17274 | 5.743 |
| 2026 Apr 29 17:57 | 2026 Apr 24 05:13:09 | 82.5514 | 0.00161 | 0.8024 | 17.9668 | 183.7556 | 13.17274 | 5.743 |
| 2026 Apr 28 17:56 | 2026 Apr 24 05:13:09 | 82.5514 | 0.00161 | 0.8024 | 17.9668 | 183.7556 | 13.17274 | 5.743 |
| 2026 Apr 27 17:58 | 2026 Apr 24 05:13:09 | 82.5514 | 0.00161 | 0.8024 | 17.9668 | 183.7556 | 13.17274 | 5.743 |
| 2026 Apr 26 17:58 | 2026 Apr 24 05:13:09 | 82.5514 | 0.00161 | 0.8024 | 17.9668 | 183.7556 | 13.17274 | 5.743 |
| 2026 Apr 25 17:58 | 2026 Apr 24 05:13:09 | 82.5514 | 0.00161 | 0.8024 | 17.9668 | 183.7556 | 13.17274 | 5.743 |
| 2026 Apr 24 17:59 | 2026 Apr 24 05:13:09 | 82.5514 | 0.00161 | 0.8024 | 17.9668 | 183.7556 | 13.17274 | 5.743 |
| 2026 Apr 23 17:57 | 2026 Apr 19 12:29:10 | 82.5515 | 0.00163 | 1.0239 | 29.2390 | 183.7556 | 13.17274 | 5.743 |
| 2026 Apr 22 17:57 | 2026 Apr 19 12:29:10 | 82.5515 | 0.00163 | 1.0239 | 29.2390 | 183.7556 | 13.17274 | 5.743 |
| 2026 Apr 21 17:57 | 2026 Apr 19 12:29:10 | 82.5515 | 0.00163 | 1.0239 | 29.2390 | 183.7556 | 13.17274 | 5.743 |
| 2026 Apr 20 17:57 | 2026 Apr 19 12:29:10 | 82.5515 | 0.00163 | 1.0239 | 29.2390 | 183.7556 | 13.17274 | 5.743 |
| 2026 Apr 19 17:58 | 2026 Apr 19 12:29:10 | 82.5515 | 0.00163 | 1.0239 | 29.2390 | 183.7556 | 13.17274 | 5.743 |
| 2026 Apr 18 17:56 | 2026 Apr 13 05:09:07 | 82.5515 | 0.00165 | 1.3212 | 44.3718 | 183.7556 | 13.17274 | 5.743 |
| 2026 Apr 16 17:57 | 2026 Apr 13 05:09:07 | 82.5515 | 0.00165 | 1.3212 | 44.3718 | 183.7556 | 13.17274 | 5.743 |
| 2026 Apr 14 17:57 | 2026 Apr 13 05:09:07 | 82.5515 | 0.00165 | 1.3212 | 44.3718 | 183.7556 | 13.17274 | 5.743 |
| 2026 Apr 13 17:57 | 2026 Apr 13 05:09:07 | 82.5515 | 0.00165 | 1.3212 | 44.3718 | 183.7556 | 13.17274 | 5.743 |
| 2026 Apr 12 17:57 | 2026 Apr 08 13:59:03 | 82.5513 | 0.00167 | 1.5397 | 55.2494 | 183.7556 | 13.17274 | 5.743 |
| 2026 Apr 11 17:57 | 2026 Apr 08 13:59:03 | 82.5513 | 0.00167 | 1.5397 | 55.2494 | 183.7556 | 13.17274 | 5.743 |
| 2026 Apr 10 17:58 | 2026 Apr 08 13:59:03 | 82.5513 | 0.00167 | 1.5397 | 55.2494 | 183.7556 | 13.17274 | 5.743 |
| 2026 Apr 09 18:01 | 2026 Apr 08 13:59:03 | 82.5513 | 0.00167 | 1.5397 | 55.2494 | 183.7556 | 13.17274 | 5.743 |
| 2026 Apr 08 17:57 | 2026 Apr 08 13:59:03 | 82.5513 | 0.00167 | 1.5397 | 55.2494 | 183.7556 | 13.17274 | 5.743 |